createdAt,value
2019-01-15T00:01:50.874Z,99510.30
2019-01-15T00:04:17.125Z,99502.78
2019-01-15T00:06:43.129Z,99517.53
2019-01-15T00:09:09.072Z,99533.45
2019-01-15T00:11:35.249Z,99524.13
2019-01-15T00:14:01.217Z,99523.98
2019-01-15T00:16:27.162Z,99527.06
2019-01-15T00:18:53.100Z,99525.47
2019-01-15T00:21:19.319Z,99533.72
2019-01-15T00:23:45.460Z,99529.41
2019-01-15T00:26:11.514Z,99525.61
2019-01-15T00:28:38.527Z,99532.67
2019-01-15T00:31:04.610Z,99520.95
2019-01-15T00:33:30.987Z,99534.43
2019-01-15T00:35:57.008Z,99537.48
2019-01-15T00:38:23.067Z,99542.61
2019-01-15T00:40:49.021Z,99542.32
2019-01-15T00:43:14.987Z,99547.02
2019-01-15T00:45:41.248Z,99549.13
2019-01-15T00:48:07.385Z,99551.64
2019-01-15T00:50:33.591Z,99540.25
2019-01-15T00:52:59.544Z,99551.49
2019-01-15T00:55:25.792Z,99530.88
2019-01-15T00:57:52.468Z,99546.26
2019-01-15T01:00:20.111Z,99551.81
2019-01-15T01:02:46.548Z,99548.59
2019-01-15T01:05:13.030Z,99531.89
2019-01-15T01:07:39.006Z,99553.61
2019-01-15T01:10:08.419Z,99542.82
2019-01-15T01:12:34.458Z,99549.09
2019-01-15T01:15:00.397Z,99553.39
2019-01-15T01:17:26.353Z,99536.37
2019-01-15T01:19:52.356Z,99537.28
2019-01-15T01:22:18.478Z,99538.60
2019-01-15T01:24:44.530Z,99541.14
2019-01-15T01:27:10.548Z,99543.30
2019-01-15T01:29:36.550Z,99545.41
2019-01-15T01:32:03.603Z,99557.20
2019-01-15T01:34:29.607Z,99562.67
2019-01-15T01:36:55.594Z,99566.11
2019-01-15T01:39:21.557Z,99563.28
2019-01-15T01:41:47.541Z,99575.46
2019-01-15T01:44:13.619Z,99570.41
2019-01-15T01:46:39.561Z,99561.23
2019-01-15T01:49:06.157Z,99564.61
2019-01-15T01:51:32.528Z,99563.89
2019-01-15T01:53:58.767Z,99560.95
2019-01-15T01:56:24.776Z,99577.25
2019-01-15T01:58:50.924Z,99583.58
2019-01-15T02:01:16.892Z,99600.34
2019-01-15T02:03:42.869Z,99575.70
2019-01-15T02:06:08.845Z,99594.57
2019-01-15T02:08:34.785Z,99598.37
2019-01-15T02:11:00.831Z,99592.49
2019-01-15T02:13:27.239Z,99589.98
2019-01-15T02:15:53.178Z,99592.59
2019-01-15T02:18:19.187Z,99592.98
2019-01-15T02:20:45.136Z,99588.80
2019-01-15T02:23:11.081Z,99586.72
2019-01-15T02:25:37.054Z,99590.95
2019-01-15T02:28:03.190Z,99601.04
2019-01-15T02:30:30.344Z,99600.22
2019-01-15T02:32:56.328Z,99596.78
2019-01-15T02:35:22.374Z,99603.34
2019-01-15T02:37:51.185Z,99606.18
2019-01-15T02:40:17.304Z,99616.64
2019-01-15T02:42:46.982Z,99610.01
2019-01-15T02:45:14.010Z,99615.55
2019-01-15T02:47:39.984Z,99614.30
2019-01-15T02:50:09.334Z,99608.86
2019-01-15T02:52:37.074Z,99616.45
2019-01-15T02:55:06.158Z,99613.58
2019-01-15T02:57:32.200Z,99608.59
2019-01-15T02:59:58.194Z,99619.45
2019-01-15T03:02:24.208Z,99621.86
2019-01-15T03:04:50.157Z,99623.97
2019-01-15T03:07:16.411Z,99624.42
2019-01-15T03:09:42.398Z,99618.16
2019-01-15T03:12:08.338Z,99625.61
2019-01-15T03:14:36.214Z,99615.98
2019-01-15T03:17:02.393Z,99616.45
2019-01-15T03:19:28.833Z,99626.11
2019-01-15T03:21:55.300Z,99629.08
2019-01-15T03:24:23.451Z,99621.98
2019-01-15T03:26:49.423Z,99623.30
2019-01-15T03:29:15.477Z,99635.84
2019-01-15T03:31:41.675Z,99646.72
2019-01-15T03:34:09.541Z,99643.75
2019-01-15T03:36:35.489Z,99630.77
2019-01-15T03:39:01.480Z,99639.20
2019-01-15T03:41:27.424Z,99634.29
2019-01-15T03:43:54.234Z,99638.88
2019-01-15T03:46:20.686Z,99641.38
2019-01-15T03:48:46.639Z,99646.00
2019-01-15T03:51:12.586Z,99651.50
2019-01-15T03:53:40.308Z,99651.11
2019-01-15T03:56:06.248Z,99644.88
2019-01-15T03:58:32.207Z,99652.88
2019-01-15T04:00:59.776Z,99659.22
2019-01-15T04:03:26.424Z,99654.62
2019-01-15T04:05:52.374Z,99651.30
2019-01-15T04:08:18.397Z,99657.13
2019-01-15T04:10:44.353Z,99658.02
2019-01-15T04:13:11.914Z,99665.61
2019-01-15T04:15:37.936Z,99665.64
2019-01-15T04:18:03.940Z,99665.64
2019-01-15T04:20:30.560Z,99660.63
2019-01-15T04:22:56.584Z,99669.83
2019-01-15T04:25:22.792Z,99669.80
2019-01-15T04:27:48.962Z,99669.03
2019-01-15T04:30:22.892Z,99679.52
2019-01-15T04:32:48.841Z,99672.00
2019-01-15T04:35:16.859Z,99677.44
2019-01-15T04:37:43.041Z,99676.67
2019-01-15T04:40:12.389Z,99680.86
2019-01-15T04:42:38.336Z,99685.91
2019-01-15T04:45:08.134Z,99678.36
2019-01-15T04:47:34.286Z,99672.95
2019-01-15T04:50:00.449Z,99669.25
2019-01-15T04:52:27.965Z,99664.67
2019-01-15T04:54:53.910Z,99676.77
2019-01-15T04:57:21.952Z,99675.55
2019-01-15T04:59:48.155Z,99679.70
2019-01-15T05:02:14.116Z,99675.52
2019-01-15T05:04:40.673Z,99677.53
2019-01-15T05:07:06.662Z,99681.35
2019-01-15T05:09:33.048Z,99684.28
2019-01-15T05:11:59.005Z,99677.59
2019-01-15T05:14:25.022Z,99680.52
2019-01-15T05:16:50.963Z,99675.52
2019-01-15T05:19:17.044Z,99690.97
2019-01-15T05:21:43.359Z,99675.09
2019-01-15T05:24:09.387Z,99688.41
2019-01-15T05:26:35.348Z,99685.91
2019-01-15T05:29:01.352Z,99692.98
2019-01-15T05:31:27.322Z,99701.30
2019-01-15T05:33:53.342Z,99700.38
2019-01-15T05:36:19.477Z,99699.13
2019-01-15T05:38:45.424Z,99703.37
2019-01-15T05:41:11.356Z,99713.34
2019-01-15T05:43:37.339Z,99715.45
2019-01-15T05:46:03.692Z,99713.73
2019-01-15T05:48:31.554Z,99714.59
2019-01-15T05:50:59.444Z,99721.66
2019-01-15T05:53:25.684Z,99718.33
2019-01-15T05:55:53.855Z,99716.64
2019-01-15T05:58:19.989Z,99720.43
2019-01-15T06:00:45.938Z,99730.48
2019-01-15T06:03:13.093Z,99729.72
2019-01-15T06:05:39.903Z,99731.83
2019-01-15T06:08:06.368Z,99734.33
2019-01-15T06:10:33.022Z,99739.44
2019-01-15T06:12:59.204Z,99742.37
2019-01-15T06:15:27.053Z,99740.28
2019-01-15T06:17:52.995Z,99744.02
2019-01-15T06:20:19.902Z,99747.44
2019-01-15T06:22:46.283Z,99744.50
2019-01-15T06:25:13.153Z,99747.80
2019-01-15T06:27:39.148Z,99749.94
2019-01-15T06:30:12.053Z,99747.87
2019-01-15T06:32:38.111Z,99752.48
2019-01-15T06:35:04.586Z,99753.30
2019-01-15T06:37:30.531Z,99759.08
2019-01-15T06:39:56.485Z,99754.06
2019-01-15T06:42:22.561Z,99758.22
2019-01-15T06:44:48.442Z,99761.59
2019-01-15T06:47:15.500Z,99769.90
2019-01-15T06:49:41.590Z,99757.77
2019-01-15T06:52:07.931Z,99765.63
2019-01-15T06:54:33.894Z,99757.68
2019-01-15T06:56:59.988Z,99764.28
2019-01-15T06:59:25.945Z,99768.04
2019-01-15T07:01:51.957Z,99762.94
2019-01-15T07:04:17.998Z,99767.61
2019-01-15T07:06:43.940Z,99774.61
2019-01-15T07:09:10.292Z,99781.52
2019-01-15T07:11:36.267Z,99782.72
2019-01-15T07:14:02.217Z,99789.05
2019-01-15T07:16:28.669Z,99791.16
2019-01-15T07:18:54.666Z,99793.30
2019-01-15T07:21:20.906Z,99793.30
2019-01-15T07:23:48.764Z,99794.48
2019-01-15T07:26:15.258Z,99791.12
2019-01-15T07:28:42.542Z,99785.16
2019-01-15T07:31:08.803Z,99798.89
2019-01-15T07:33:34.818Z,99798.80
2019-01-15T07:36:01.742Z,99795.04
2019-01-15T07:38:27.687Z,99802.53
2019-01-15T07:40:53.691Z,99801.22
2019-01-15T07:43:20.137Z,99809.63
2019-01-15T07:45:46.086Z,99811.61
2019-01-15T07:48:12.200Z,99816.14
2019-01-15T07:50:38.144Z,99814.36
2019-01-15T07:53:04.480Z,99814.28
2019-01-15T07:55:30.480Z,99810.05
2019-01-15T07:57:57.781Z,99806.20
2019-01-15T08:00:25.368Z,99809.44
2019-01-15T08:02:52.852Z,99813.45
2019-01-15T08:05:21.359Z,99822.10
2019-01-15T08:07:48.564Z,99816.87
2019-01-15T08:10:16.486Z,99820.34
2019-01-15T08:12:42.548Z,99817.22
2019-01-15T08:15:11.705Z,99836.73
2019-01-15T08:17:38.491Z,99818.24
2019-01-15T08:20:08.232Z,99846.18
2019-01-15T08:22:34.176Z,99825.64
2019-01-15T08:25:00.269Z,99846.98
2019-01-15T08:27:26.210Z,99860.77
2019-01-15T08:29:52.811Z,99849.02
2019-01-15T08:32:20.075Z,99859.03
2019-01-15T08:34:46.573Z,99860.22
2019-01-15T08:37:12.583Z,99862.27
2019-01-15T08:39:38.580Z,99868.05
2019-01-15T08:42:05.029Z,99866.77
2019-01-15T08:44:31.694Z,99865.91
2019-01-15T08:46:57.676Z,99865.45
2019-01-15T08:49:23.611Z,99862.04
2019-01-15T08:51:50.284Z,99872.81
2019-01-15T08:54:16.714Z,99872.81
2019-01-15T08:56:43.455Z,99876.94
2019-01-15T08:59:09.403Z,99869.81
2019-01-15T09:01:37.287Z,99864.69
2019-01-15T09:04:05.118Z,99863.40
2019-01-15T09:06:31.108Z,99863.73
2019-01-15T09:08:57.204Z,99869.08
2019-01-15T09:11:23.160Z,99874.90
2019-01-15T09:13:49.123Z,99884.41
2019-01-15T09:16:15.444Z,99878.47
2019-01-15T09:18:41.487Z,99885.47
2019-01-15T09:21:07.438Z,99883.72
2019-01-15T09:23:33.432Z,99890.73
2019-01-15T09:25:59.381Z,99886.42
2019-01-15T09:28:27.031Z,99894.33
2019-01-15T09:30:54.221Z,99878.66
2019-01-15T09:33:20.560Z,99887.31
2019-01-15T09:35:46.515Z,99886.71
2019-01-15T09:38:13.140Z,99895.27
2019-01-15T09:40:39.319Z,99904.94
2019-01-15T09:43:07.181Z,99893.92
2019-01-15T09:45:36.055Z,99890.94
2019-01-15T09:48:04.043Z,99890.58
2019-01-15T09:50:30.183Z,99888.23
2019-01-15T09:52:56.594Z,99879.06
2019-01-15T09:55:22.549Z,99879.07
2019-01-15T09:57:48.679Z,99888.56
2019-01-15T10:00:17.801Z,99880.08
2019-01-15T10:02:43.750Z,99876.33
2019-01-15T10:05:10.119Z,99871.95
2019-01-15T10:07:36.132Z,99877.74
2019-01-15T10:10:05.903Z,99869.68
2019-01-15T10:12:31.849Z,99878.18
2019-01-15T10:14:57.845Z,99881.91
2019-01-15T10:17:23.985Z,99888.13
2019-01-15T10:19:50.040Z,99887.45
2019-01-15T10:22:16.244Z,99887.80
2019-01-15T10:24:42.193Z,99880.17
2019-01-15T10:27:08.677Z,99884.30
2019-01-15T10:29:35.072Z,99891.07
2019-01-15T10:32:14.770Z,99884.02
2019-01-15T10:34:41.267Z,99892.95
2019-01-15T10:37:08.094Z,99876.59
2019-01-15T10:39:34.966Z,99878.20
2019-01-15T10:42:00.968Z,99890.88
2019-01-15T10:44:27.366Z,99878.28
2019-01-15T10:46:53.671Z,99888.36
2019-01-15T10:49:20.061Z,99882.19
2019-01-15T10:51:46.110Z,99883.92
2019-01-15T10:54:12.132Z,99892.46
2019-01-15T10:56:38.117Z,99891.44
2019-01-15T10:59:04.062Z,99895.84
2019-01-15T11:01:30.197Z,99896.11
2019-01-15T11:03:56.221Z,99901.47
2019-01-15T11:06:25.775Z,99899.18
2019-01-15T11:08:51.791Z,99906.39
2019-01-15T11:11:17.784Z,99908.74
2019-01-15T11:13:43.836Z,99904.47
2019-01-15T11:16:09.798Z,99906.77
2019-01-15T11:18:35.779Z,99910.59
2019-01-15T11:21:01.722Z,99925.24
2019-01-15T11:23:27.678Z,99908.47
2019-01-15T11:25:53.718Z,99908.03
2019-01-15T11:28:19.658Z,99905.84
2019-01-15T11:30:45.624Z,99907.38
2019-01-15T11:33:11.588Z,99909.28
2019-01-15T11:35:37.532Z,99904.49
2019-01-15T11:38:03.666Z,99907.54
2019-01-15T11:40:31.352Z,99907.59
2019-01-15T11:42:59.097Z,99914.05
2019-01-15T11:45:25.144Z,99911.66
2019-01-15T11:47:52.055Z,99910.44
2019-01-15T11:50:20.193Z,99924.33
2019-01-15T11:52:46.239Z,99912.87
2019-01-15T11:55:12.914Z,99915.27
2019-01-15T11:57:38.931Z,99924.20
2019-01-15T12:00:22.208Z,99910.78
2019-01-15T12:02:50.310Z,99918.61
2019-01-15T12:05:18.196Z,99912.75
2019-01-15T12:08:02.722Z,99920.62
2019-01-15T12:10:36.355Z,99917.24
2019-01-15T12:13:20.955Z,99917.09
2019-01-15T12:15:48.809Z,99915.16
2019-01-15T12:18:33.437Z,99918.42
2019-01-15T12:21:01.296Z,99917.28
2019-01-15T12:23:44.324Z,99910.69
2019-01-15T12:26:24.249Z,99904.98
2019-01-15T12:28:54.641Z,99907.95
2019-01-15T12:31:28.349Z,99902.41
2019-01-15T12:33:56.255Z,99906.47
2019-01-15T12:36:29.717Z,99904.13
2019-01-15T12:39:09.385Z,99899.14
2019-01-15T12:41:46.316Z,99903.56
2019-01-15T12:44:30.613Z,99904.02
2019-01-15T12:47:01.041Z,99894.89
2019-01-15T12:49:34.953Z,99894.61
2019-01-15T12:52:05.570Z,99901.90
2019-01-15T12:54:42.588Z,99900.28
2019-01-15T12:57:22.234Z,99901.09
2019-01-15T12:59:59.137Z,99896.16
2019-01-15T13:02:26.985Z,99899.44
2019-01-15T13:08:11.322Z,99888.88
2019-01-15T13:10:40.059Z,99888.70
2019-01-15T13:13:14.126Z,99893.19
2019-01-15T13:15:45.566Z,99882.73
2019-01-15T13:18:21.284Z,99887.61
2019-01-15T13:20:49.239Z,99888.34
2019-01-15T13:23:32.263Z,99889.34
2019-01-15T13:26:03.093Z,99896.70
2019-01-15T13:28:40.047Z,99890.38
2019-01-15T13:31:13.964Z,99903.81
2019-01-15T13:33:50.874Z,99895.48
2019-01-15T13:36:18.763Z,99907.96
2019-01-15T13:39:03.532Z,99899.23
2019-01-15T13:41:43.498Z,99902.95
2019-01-15T13:44:17.396Z,99897.69
2019-01-15T13:46:57.431Z,99903.66
2019-01-15T13:49:34.005Z,99904.28
2019-01-15T13:52:10.810Z,99903.69
2019-01-15T13:54:38.681Z,99898.73
2019-01-15T13:57:06.521Z,99895.90
2019-01-15T13:59:50.992Z,99888.25
2019-01-15T14:02:21.603Z,99890.05
2019-01-15T14:04:58.388Z,99902.94
2019-01-15T14:07:37.862Z,99890.03
2019-01-15T14:10:27.868Z,99883.43
2019-01-15T14:12:55.724Z,99885.94
2019-01-15T14:15:29.883Z,99889.54
2019-01-15T14:18:03.724Z,99891.77
2019-01-15T14:20:31.907Z,99888.58
2019-01-15T14:23:09.785Z,99879.02
2019-01-15T14:25:56.290Z,99877.48
2019-01-15T14:28:40.818Z,99874.67
2019-01-15T14:31:18.032Z,99866.95
2019-01-15T14:33:54.456Z,99860.06
2019-01-15T14:36:34.152Z,99852.62
2019-01-15T14:39:14.548Z,99850.66
2019-01-15T14:41:45.374Z,99844.88
2019-01-15T14:44:25.631Z,99853.70
2019-01-15T14:46:56.630Z,99837.87
2019-01-15T14:49:30.537Z,99832.45
2019-01-15T14:52:10.390Z,99819.02
2019-01-15T14:54:41.037Z,99827.42
2019-01-15T14:57:24.060Z,99822.51
2019-01-15T14:59:51.917Z,99815.08
2019-01-15T15:02:19.779Z,99810.48
2019-01-15T15:05:04.269Z,99819.60
2019-01-15T15:07:35.010Z,99809.98
2019-01-15T15:10:21.019Z,99812.06
2019-01-15T15:12:51.911Z,99807.00
2019-01-15T15:15:19.865Z,99801.48
2019-01-15T15:18:06.937Z,99807.29
2019-01-15T15:20:50.823Z,99818.20
2019-01-15T15:23:31.584Z,99825.98
2019-01-15T15:26:05.635Z,99831.96
2019-01-15T15:28:42.643Z,99833.46
2019-01-15T15:31:19.350Z,99822.60
2019-01-15T15:33:56.844Z,99830.56
2019-01-15T15:36:30.972Z,99825.36
2019-01-15T15:38:58.884Z,99817.39
2019-01-15T15:41:41.866Z,99801.86
2019-01-15T15:44:17.589Z,99804.46
2019-01-15T15:46:49.521Z,99797.86
2019-01-15T15:49:34.514Z,99798.50
2019-01-15T15:52:05.638Z,99797.34
2019-01-15T15:54:48.859Z,99803.58
2019-01-15T15:57:28.474Z,99793.67
2019-01-15T15:59:56.413Z,99794.61
2019-01-15T16:02:24.296Z,99784.70
2019-01-15T16:05:08.776Z,99785.53
2019-01-15T16:07:53.242Z,99772.91
2019-01-15T16:10:39.373Z,99765.33
2019-01-15T16:13:23.821Z,99753.98
2019-01-15T16:16:09.928Z,99732.58
2019-01-15T16:18:49.593Z,99726.68
2019-01-15T16:21:17.482Z,99719.86
2019-01-15T16:23:54.217Z,99710.09
2019-01-15T16:26:38.509Z,99700.50
2019-01-15T16:29:06.357Z,99692.55
2019-01-15T16:31:34.213Z,99687.47
2019-01-15T16:34:11.013Z,99675.72
2019-01-15T16:36:53.671Z,99662.95
2019-01-15T16:39:38.139Z,99659.84
2019-01-15T16:42:14.970Z,99648.02
2019-01-15T16:44:42.902Z,99632.11
2019-01-15T16:47:16.822Z,99634.09
2019-01-15T16:50:01.612Z,99624.88
2019-01-15T16:52:44.612Z,99622.73
2019-01-15T16:55:28.084Z,99622.30
2019-01-15T16:58:05.059Z,99619.86
2019-01-15T17:00:49.735Z,99610.69
2019-01-15T17:03:23.414Z,99611.19
2019-01-15T17:05:54.055Z,99600.66
2019-01-15T17:08:30.795Z,99599.02
2019-01-15T17:11:06.914Z,99591.13
2019-01-15T17:13:37.592Z,99594.39
2019-01-15T17:16:14.959Z,99587.01
2019-01-15T17:18:42.824Z,99577.27
2019-01-15T17:21:19.324Z,99566.77
2019-01-15T17:23:52.759Z,99554.65
2019-01-15T17:26:20.828Z,99551.75
2019-01-15T17:29:04.968Z,99539.53
2019-01-15T17:31:38.720Z,99531.89
2019-01-15T17:34:09.921Z,99518.06
2019-01-15T17:36:37.778Z,99510.97
2019-01-15T17:39:08.683Z,99505.84
2019-01-15T17:41:36.554Z,99500.89
2019-01-15T17:44:05.007Z,99496.20
2019-01-15T17:46:41.042Z,99479.03
2019-01-15T17:49:08.540Z,99475.19
2019-01-15T17:51:48.765Z,99466.30
2019-01-15T17:54:22.468Z,99457.36
2019-01-15T17:56:53.148Z,99450.58
2019-01-15T17:59:23.632Z,99442.58
2019-01-15T18:02:00.576Z,99437.67
2019-01-15T18:04:37.501Z,99433.02
2019-01-15T18:07:17.442Z,99428.83
2019-01-15T18:09:51.283Z,99412.03
2019-01-15T18:12:20.531Z,99406.39
2019-01-15T18:14:57.326Z,99393.73
2019-01-15T18:17:34.097Z,99383.26
2019-01-15T18:20:10.856Z,99378.63
2019-01-15T18:22:39.095Z,99379.77
2019-01-15T18:25:10.343Z,99371.28
2019-01-15T18:27:56.344Z,99371.67
2019-01-15T18:30:29.885Z,99374.84
2019-01-15T18:33:00.795Z,99358.30
2019-01-15T18:35:34.235Z,99344.36
2019-01-15T18:38:07.920Z,99346.48
2019-01-15T18:40:38.553Z,99363.63
2019-01-15T18:43:15.684Z,99348.69
2019-01-15T18:45:55.721Z,99335.82
2019-01-15T18:48:35.524Z,99315.91
2019-01-15T18:51:03.389Z,99325.64
2019-01-15T18:53:31.426Z,99324.00
2019-01-15T18:56:13.089Z,99303.92
2019-01-15T18:58:49.763Z,99298.85
2019-01-15T19:01:23.662Z,99286.78
2019-01-15T19:03:51.623Z,99294.83
2019-01-15T19:06:25.823Z,99292.23
2019-01-15T19:09:05.966Z,99271.03
2019-01-15T19:11:36.373Z,99284.66
2019-01-15T19:14:07.515Z,99268.73
2019-01-15T19:16:38.163Z,99256.66
2019-01-15T19:19:06.936Z,99252.20
2019-01-15T19:21:34.809Z,99251.72
2019-01-15T19:24:11.602Z,99242.94
2019-01-15T19:26:41.406Z,99246.31
2019-01-15T19:29:27.439Z,99241.34
2019-01-15T19:31:55.412Z,99237.02
2019-01-15T19:34:28.995Z,99225.67
2019-01-15T19:36:56.848Z,99227.80
2019-01-15T19:39:27.246Z,99221.66
2019-01-15T19:42:06.945Z,99222.61
2019-01-15T19:44:34.807Z,99218.33
2019-01-15T19:47:10.652Z,99211.61
2019-01-15T19:49:37.993Z,99209.92
2019-01-15T19:52:11.890Z,99210.53
2019-01-15T19:54:57.408Z,99201.95
2019-01-15T19:57:28.290Z,99203.76
2019-01-15T20:00:11.352Z,99206.30
2019-01-15T20:02:51.164Z,99208.30
2019-01-15T20:05:22.124Z,99200.56
2019-01-15T20:07:58.852Z,99206.53
2019-01-15T20:10:27.958Z,99213.26
2019-01-15T20:13:08.198Z,99222.02
2019-01-15T20:15:44.782Z,99209.05
2019-01-15T20:18:15.495Z,99219.58
2019-01-15T20:20:52.471Z,99217.03
2019-01-15T20:23:36.073Z,99216.21
2019-01-15T20:26:13.270Z,99210.28
2019-01-15T20:28:41.131Z,99221.23
2019-01-15T20:31:26.135Z,99236.52
2019-01-15T20:34:02.841Z,99244.26
2019-01-15T20:36:39.591Z,99247.00
2019-01-15T20:39:09.015Z,99247.29
2019-01-15T20:41:42.966Z,99244.71
2019-01-15T20:44:19.307Z,99241.75
2019-01-15T20:46:50.174Z,99257.59
2019-01-15T20:49:34.802Z,99261.69
2019-01-15T20:52:02.776Z,99291.38
2019-01-15T20:54:30.622Z,99301.83
2019-01-15T20:57:07.366Z,99322.48
2019-01-15T20:59:38.168Z,99323.02
2019-01-15T21:02:21.153Z,99316.78
2019-01-15T21:05:01.075Z,99327.45
2019-01-15T21:07:38.084Z,99342.42
2019-01-15T21:10:31.560Z,99340.48
2019-01-15T21:13:12.352Z,99365.44
2019-01-15T21:15:49.361Z,99367.28
2019-01-15T21:18:23.387Z,99354.55
2019-01-15T21:21:01.543Z,99373.63
2019-01-15T21:23:46.134Z,99370.82
2019-01-15T21:26:14.175Z,99405.39
2019-01-15T21:28:42.056Z,99395.08
2019-01-15T21:31:10.051Z,99403.59
2019-01-15T21:33:50.172Z,99406.31
2019-01-15T21:36:26.678Z,99428.58
2019-01-15T21:38:57.993Z,99414.00
2019-01-15T21:41:38.092Z,99438.78
2019-01-15T21:44:09.071Z,99443.00
2019-01-15T21:46:53.752Z,99448.17
2019-01-15T21:49:30.506Z,99450.52
2019-01-15T21:52:17.755Z,99451.39
2019-01-15T21:55:04.912Z,99469.88
2019-01-15T21:57:35.656Z,99472.97
2019-01-15T22:00:20.285Z,99473.20
2019-01-15T22:03:04.848Z,99503.52
2019-01-15T22:05:35.675Z,99493.77
2019-01-15T22:08:20.675Z,99504.27
2019-01-15T22:11:00.361Z,99513.13
2019-01-15T22:13:31.093Z,99514.03
2019-01-15T22:15:59.095Z,99550.11
2019-01-15T22:18:36.386Z,99549.73
2019-01-15T22:21:20.940Z,99563.12
2019-01-15T22:23:54.785Z,99564.82
2019-01-15T22:26:39.205Z,99586.59
2019-01-15T22:29:13.235Z,99591.63
2019-01-15T22:31:57.536Z,99605.97
2019-01-15T22:34:29.239Z,99605.20
2019-01-15T22:37:13.905Z,99601.94
2019-01-15T22:39:50.986Z,99604.58
2019-01-15T22:42:21.961Z,99616.89
2019-01-15T22:44:52.436Z,99614.42
2019-01-15T22:47:20.424Z,99628.33
2019-01-15T22:49:54.231Z,99640.91
2019-01-15T22:52:31.099Z,99651.52
2019-01-15T22:54:59.106Z,99653.34
2019-01-15T22:57:32.894Z,99655.89
2019-01-15T23:00:15.994Z,99662.73
2019-01-15T23:02:46.650Z,99662.93
2019-01-15T23:05:20.158Z,99687.41
2019-01-15T23:07:53.884Z,99689.53
2019-01-15T23:10:30.733Z,99691.34
2019-01-15T23:12:58.633Z,99691.45
2019-01-15T23:15:29.451Z,99706.11
2019-01-15T23:18:09.529Z,99700.22
2019-01-15T23:20:49.556Z,99703.64
2019-01-15T23:23:26.636Z,99722.61
2019-01-15T23:26:02.260Z,99727.03
2019-01-15T23:28:32.880Z,99722.83
2019-01-15T23:31:09.509Z,99723.49
2019-01-15T23:33:37.681Z,99732.52
2019-01-15T23:36:22.328Z,99736.73
2019-01-15T23:39:09.131Z,99746.80
2019-01-15T23:41:42.704Z,99748.73
2019-01-15T23:47:21.335Z,99757.19
2019-01-15T23:50:04.520Z,99770.79
2019-01-15T23:52:38.007Z,99770.33
2019-01-15T23:55:24.017Z,99775.57
2019-01-15T23:58:04.810Z,99779.95
